sensor_id;sensor_type;location;lat;lon;timestamp;temperature;humidity
22194;DHT22;11262;50.308;9.270;2022-10-29T00:00:09;17.20;99.90
22194;DHT22;11262;50.308;9.270;2022-10-29T00:02:35;17.20;99.90
22194;DHT22;11262;50.308;9.270;2022-10-29T00:05:01;17.20;99.90
22194;DHT22;11262;50.308;9.270;2022-10-29T00:07:26;17.20;99.90
22194;DHT22;11262;50.308;9.270;2022-10-29T00:09:52;17.20;99.90
22194;DHT22;11262;50.308;9.270;2022-10-29T00:12:17;17.20;99.90
22194;DHT22;11262;50.308;9.270;2022-10-29T00:14:43;17.10;99.90
22194;DHT22;11262;50.308;9.270;2022-10-29T00:17:09;17.10;99.90
22194;DHT22;11262;50.308;9.270;2022-10-29T00:19:34;17.20;99.90
22194;DHT22;11262;50.308;9.270;2022-10-29T00:22:00;17.10;99.90
22194;DHT22;11262;50.308;9.270;2022-10-29T00:24:25;17.20;99.90
22194;DHT22;11262;50.308;9.270;2022-10-29T00:26:51;17.20;99.90
22194;DHT22;11262;50.308;9.270;2022-10-29T00:29:16;17.20;99.90
22194;DHT22;11262;50.308;9.270;2022-10-29T00:31:42;17.20;99.90
22194;DHT22;11262;50.308;9.270;2022-10-29T00:34:07;17.20;99.90
22194;DHT22;11262;50.308;9.270;2022-10-29T00:36:33;17.20;99.90
22194;DHT22;11262;50.308;9.270;2022-10-29T00:38:58;17.20;99.90
22194;DHT22;11262;50.308;9.270;2022-10-29T00:41:28;17.20;99.90
22194;DHT22;11262;50.308;9.270;2022-10-29T00:46:40;17.20;99.90
22194;DHT22;11262;50.308;9.270;2022-10-29T00:49:08;17.20;99.90
22194;DHT22;11262;50.308;9.270;2022-10-29T00:51:35;17.20;99.90
22194;DHT22;11262;50.308;9.270;2022-10-29T00:54:08;17.20;99.90
22194;DHT22;11262;50.308;9.270;2022-10-29T00:56:56;17.20;99.90
22194;DHT22;11262;50.308;9.270;2022-10-29T00:59:23;17.10;99.90
22194;DHT22;11262;50.308;9.270;2022-10-29T01:01:49;17.10;99.90
22194;DHT22;11262;50.308;9.270;2022-10-29T01:04:16;17.10;99.90
22194;DHT22;11262;50.308;9.270;2022-10-29T01:06:42;17.00;99.90
22194;DHT22;11262;50.308;9.270;2022-10-29T01:09:09;17.00;99.90
22194;DHT22;11262;50.308;9.270;2022-10-29T01:17:11;16.90;99.90
22194;DHT22;11262;50.308;9.270;2022-10-29T01:22:32;16.90;99.90
22194;DHT22;11262;50.308;9.270;2022-10-29T01:25:17;16.90;99.90
22194;DHT22;11262;50.308;9.270;2022-10-29T01:28:13;16.80;99.90
22194;DHT22;11262;50.308;9.270;2022-10-29T01:33:52;16.80;99.90
22194;DHT22;11262;50.308;9.270;2022-10-29T01:39:06;16.70;99.90
22194;DHT22;11262;50.308;9.270;2022-10-29T01:44:36;16.80;99.90
22194;DHT22;11262;50.308;9.270;2022-10-29T01:47:04;16.80;99.90
22194;DHT22;11262;50.308;9.270;2022-10-29T01:49:38;16.80;99.90
22194;DHT22;11262;50.308;9.270;2022-10-29T01:52:06;16.70;99.90
22194;DHT22;11262;50.308;9.270;2022-10-29T01:54:33;16.80;99.90
22194;DHT22;11262;50.308;9.270;2022-10-29T01:57:41;16.70;99.90
22194;DHT22;11262;50.308;9.270;2022-10-29T02:00:15;16.60;99.90
22194;DHT22;11262;50.308;9.270;2022-10-29T02:08:35;15.90;99.90
22194;DHT22;11262;50.308;9.270;2022-10-29T02:14:04;15.60;99.90
22194;DHT22;11262;50.308;9.270;2022-10-29T02:16:31;15.60;99.90
22194;DHT22;11262;50.308;9.270;2022-10-29T02:18:58;15.50;99.90
22194;DHT22;11262;50.308;9.270;2022-10-29T02:21:24;15.40;99.90
22194;DHT22;11262;50.308;9.270;2022-10-29T02:23:50;15.40;99.90
22194;DHT22;11262;50.308;9.270;2022-10-29T02:26:16;15.30;99.90
22194;DHT22;11262;50.308;9.270;2022-10-29T02:28:41;15.30;99.90
22194;DHT22;11262;50.308;9.270;2022-10-29T02:31:07;15.20;99.90
22194;DHT22;11262;50.308;9.270;2022-10-29T02:33:33;15.20;99.90
22194;DHT22;11262;50.308;9.270;2022-10-29T02:35:59;15.10;99.90
22194;DHT22;11262;50.308;9.270;2022-10-29T02:38:25;15.10;99.90
22194;DHT22;11262;50.308;9.270;2022-10-29T02:40:50;15.00;99.90
22194;DHT22;11262;50.308;9.270;2022-10-29T02:43:16;15.00;99.90
22194;DHT22;11262;50.308;9.270;2022-10-29T02:45:41;14.80;99.90
22194;DHT22;11262;50.308;9.270;2022-10-29T02:48:07;14.80;99.90
22194;DHT22;11262;50.308;9.270;2022-10-29T02:50:33;14.70;99.90
22194;DHT22;11262;50.308;9.270;2022-10-29T02:52:59;14.60;99.90
22194;DHT22;11262;50.308;9.270;2022-10-29T02:55:24;14.50;99.90
22194;DHT22;11262;50.308;9.270;2022-10-29T02:57:50;14.50;99.90
22194;DHT22;11262;50.308;9.270;2022-10-29T03:00:15;14.40;99.90
22194;DHT22;11262;50.308;9.270;2022-10-29T03:02:41;14.40;99.90
22194;DHT22;11262;50.308;9.270;2022-10-29T03:05:07;14.30;99.90
22194;DHT22;11262;50.308;9.270;2022-10-29T03:07:37;14.30;99.90
22194;DHT22;11262;50.308;9.270;2022-10-29T03:10:06;14.20;99.90
22194;DHT22;11262;50.308;9.270;2022-10-29T03:12:32;14.20;99.90
22194;DHT22;11262;50.308;9.270;2022-10-29T03:14:58;14.10;99.90
22194;DHT22;11262;50.308;9.270;2022-10-29T03:17:23;14.10;99.90
22194;DHT22;11262;50.308;9.270;2022-10-29T03:19:49;14.10;99.90
22194;DHT22;11262;50.308;9.270;2022-10-29T03:22:15;14.00;99.90
22194;DHT22;11262;50.308;9.270;2022-10-29T03:24:40;14.00;99.90
22194;DHT22;11262;50.308;9.270;2022-10-29T03:27:06;14.00;99.90
22194;DHT22;11262;50.308;9.270;2022-10-29T03:29:31;13.90;99.90
22194;DHT22;11262;50.308;9.270;2022-10-29T03:31:57;13.90;99.90
22194;DHT22;11262;50.308;9.270;2022-10-29T03:34:23;13.90;99.90
22194;DHT22;11262;50.308;9.270;2022-10-29T03:36:48;13.90;99.90
22194;DHT22;11262;50.308;9.270;2022-10-29T03:39:14;13.70;99.90
22194;DHT22;11262;50.308;9.270;2022-10-29T03:41:39;13.80;99.90
22194;DHT22;11262;50.308;9.270;2022-10-29T03:44:05;13.70;99.90
22194;DHT22;11262;50.308;9.270;2022-10-29T03:46:31;13.70;99.90
22194;DHT22;11262;50.308;9.270;2022-10-29T03:48:57;13.60;99.90
22194;DHT22;11262;50.308;9.270;2022-10-29T03:51:25;13.60;99.90
22194;DHT22;11262;50.308;9.270;2022-10-29T03:53:51;13.50;99.90
22194;DHT22;11262;50.308;9.270;2022-10-29T03:56:17;13.50;99.90
22194;DHT22;11262;50.308;9.270;2022-10-29T03:58:42;13.50;99.90
22194;DHT22;11262;50.308;9.270;2022-10-29T04:01:09;13.50;99.90
22194;DHT22;11262;50.308;9.270;2022-10-29T04:03:36;13.40;99.90
22194;DHT22;11262;50.308;9.270;2022-10-29T04:06:09;13.30;99.90
22194;DHT22;11262;50.308;9.270;2022-10-29T04:08:35;13.30;99.90
22194;DHT22;11262;50.308;9.270;2022-10-29T04:11:01;13.40;99.90
22194;DHT22;11262;50.308;9.270;2022-10-29T04:13:26;13.40;99.90
22194;DHT22;11262;50.308;9.270;2022-10-29T04:15:53;13.40;99.90
22194;DHT22;11262;50.308;9.270;2022-10-29T04:18:19;13.40;99.90
22194;DHT22;11262;50.308;9.270;2022-10-29T04:20:45;13.40;99.90
22194;DHT22;11262;50.308;9.270;2022-10-29T04:23:10;13.30;99.90
22194;DHT22;11262;50.308;9.270;2022-10-29T04:25:36;13.30;99.90
22194;DHT22;11262;50.308;9.270;2022-10-29T04:28:02;13.30;99.90
22194;DHT22;11262;50.308;9.270;2022-10-29T04:30:28;13.20;99.90
22194;DHT22;11262;50.308;9.270;2022-10-29T04:32:58;13.20;99.90
22194;DHT22;11262;50.308;9.270;2022-10-29T04:35:25;13.20;99.90
22194;DHT22;11262;50.308;9.270;2022-10-29T04:37:51;13.20;99.90
22194;DHT22;11262;50.308;9.270;2022-10-29T04:40:20;13.10;99.90
22194;DHT22;11262;50.308;9.270;2022-10-29T04:42:46;13.10;99.90
22194;DHT22;11262;50.308;9.270;2022-10-29T04:45:12;13.20;99.90
22194;DHT22;11262;50.308;9.270;2022-10-29T04:47:38;13.20;99.90
22194;DHT22;11262;50.308;9.270;2022-10-29T04:50:04;13.10;99.90
22194;DHT22;11262;50.308;9.270;2022-10-29T04:52:29;13.10;99.90
22194;DHT22;11262;50.308;9.270;2022-10-29T04:54:55;13.10;99.90
22194;DHT22;11262;50.308;9.270;2022-10-29T04:57:20;13.10;99.90
22194;DHT22;11262;50.308;9.270;2022-10-29T04:59:46;13.10;99.90
22194;DHT22;11262;50.308;9.270;2022-10-29T05:02:13;13.00;99.90
22194;DHT22;11262;50.308;9.270;2022-10-29T05:04:38;13.00;99.90
22194;DHT22;11262;50.308;9.270;2022-10-29T05:07:04;13.00;99.90
22194;DHT22;11262;50.308;9.270;2022-10-29T05:09:29;13.00;99.90
22194;DHT22;11262;50.308;9.270;2022-10-29T05:11:55;13.00;99.90
22194;DHT22;11262;50.308;9.270;2022-10-29T05:14:21;12.90;99.90
22194;DHT22;11262;50.308;9.270;2022-10-29T05:16:46;12.90;99.90
22194;DHT22;11262;50.308;9.270;2022-10-29T05:19:12;12.90;99.90
22194;DHT22;11262;50.308;9.270;2022-10-29T05:21:37;12.90;99.90
22194;DHT22;11262;50.308;9.270;2022-10-29T05:24:03;12.80;99.90
22194;DHT22;11262;50.308;9.270;2022-10-29T05:26:32;12.90;99.90
22194;DHT22;11262;50.308;9.270;2022-10-29T05:28:57;12.90;99.90
22194;DHT22;11262;50.308;9.270;2022-10-29T05:31:23;12.90;99.90
22194;DHT22;11262;50.308;9.270;2022-10-29T05:33:49;12.90;99.90
22194;DHT22;11262;50.308;9.270;2022-10-29T05:36:15;12.90;99.90
22194;DHT22;11262;50.308;9.270;2022-10-29T05:38:40;13.00;99.90
22194;DHT22;11262;50.308;9.270;2022-10-29T05:41:06;13.00;99.90
22194;DHT22;11262;50.308;9.270;2022-10-29T05:43:32;13.10;99.90
22194;DHT22;11262;50.308;9.270;2022-10-29T05:45:58;13.10;99.90
22194;DHT22;11262;50.308;9.270;2022-10-29T05:48:26;13.20;99.90
22194;DHT22;11262;50.308;9.270;2022-10-29T05:50:51;13.20;99.90
22194;DHT22;11262;50.308;9.270;2022-10-29T05:53:17;13.20;99.90
22194;DHT22;11262;50.308;9.270;2022-10-29T05:55:42;13.20;99.90
22194;DHT22;11262;50.308;9.270;2022-10-29T05:58:11;13.20;99.90
22194;DHT22;11262;50.308;9.270;2022-10-29T06:00:38;13.30;99.90
22194;DHT22;11262;50.308;9.270;2022-10-29T06:03:13;13.30;99.90
22194;DHT22;11262;50.308;9.270;2022-10-29T06:05:38;13.30;99.90
22194;DHT22;11262;50.308;9.270;2022-10-29T06:08:04;13.40;99.90
22194;DHT22;11262;50.308;9.270;2022-10-29T06:10:30;13.40;99.90
22194;DHT22;11262;50.308;9.270;2022-10-29T06:12:55;13.40;99.90
22194;DHT22;11262;50.308;9.270;2022-10-29T06:15:21;13.40;99.90
22194;DHT22;11262;50.308;9.270;2022-10-29T06:17:47;13.40;99.90
22194;DHT22;11262;50.308;9.270;2022-10-29T06:20:16;13.40;99.90
22194;DHT22;11262;50.308;9.270;2022-10-29T06:22:42;13.40;99.90
22194;DHT22;11262;50.308;9.270;2022-10-29T06:25:08;13.50;99.90
22194;DHT22;11262;50.308;9.270;2022-10-29T06:27:34;13.50;99.90
22194;DHT22;11262;50.308;9.270;2022-10-29T06:30:00;13.60;99.90
22194;DHT22;11262;50.308;9.270;2022-10-29T06:32:26;13.60;99.90
22194;DHT22;11262;50.308;9.270;2022-10-29T06:34:51;13.60;99.90
22194;DHT22;11262;50.308;9.270;2022-10-29T06:37:17;13.60;99.90
22194;DHT22;11262;50.308;9.270;2022-10-29T06:39:42;13.60;99.90
22194;DHT22;11262;50.308;9.270;2022-10-29T06:42:08;13.60;99.90
22194;DHT22;11262;50.308;9.270;2022-10-29T06:44:33;13.60;99.90
22194;DHT22;11262;50.308;9.270;2022-10-29T06:46:59;13.60;99.90
22194;DHT22;11262;50.308;9.270;2022-10-29T06:49:25;13.60;99.90
22194;DHT22;11262;50.308;9.270;2022-10-29T06:51:50;13.60;99.90
22194;DHT22;11262;50.308;9.270;2022-10-29T06:54:16;13.60;99.90
22194;DHT22;11262;50.308;9.270;2022-10-29T06:56:42;13.60;99.90
22194;DHT22;11262;50.308;9.270;2022-10-29T06:59:07;13.60;99.90
22194;DHT22;11262;50.308;9.270;2022-10-29T07:01:33;13.60;99.90
22194;DHT22;11262;50.308;9.270;2022-10-29T07:03:59;13.60;99.90
22194;DHT22;11262;50.308;9.270;2022-10-29T07:06:25;13.70;99.90
22194;DHT22;11262;50.308;9.270;2022-10-29T07:08:50;13.70;99.90
22194;DHT22;11262;50.308;9.270;2022-10-29T07:11:16;13.70;99.90
22194;DHT22;11262;50.308;9.270;2022-10-29T07:13:42;13.80;99.90
22194;DHT22;11262;50.308;9.270;2022-10-29T07:16:08;13.80;99.90
22194;DHT22;11262;50.308;9.270;2022-10-29T07:18:34;13.80;99.90
22194;DHT22;11262;50.308;9.270;2022-10-29T07:21:01;13.90;99.90
22194;DHT22;11262;50.308;9.270;2022-10-29T07:23:27;14.00;99.90
22194;DHT22;11262;50.308;9.270;2022-10-29T07:25:52;14.00;99.90
22194;DHT22;11262;50.308;9.270;2022-10-29T07:28:20;14.00;99.90
22194;DHT22;11262;50.308;9.270;2022-10-29T07:30:48;14.10;99.90
22194;DHT22;11262;50.308;9.270;2022-10-29T07:33:14;14.10;99.90
22194;DHT22;11262;50.308;9.270;2022-10-29T07:35:40;14.20;99.90
22194;DHT22;11262;50.308;9.270;2022-10-29T07:38:07;14.20;99.90
22194;DHT22;11262;50.308;9.270;2022-10-29T07:40:33;14.20;99.90
22194;DHT22;11262;50.308;9.270;2022-10-29T07:42:59;14.30;99.90
22194;DHT22;11262;50.308;9.270;2022-10-29T07:45:24;14.30;99.90
22194;DHT22;11262;50.308;9.270;2022-10-29T07:48:04;14.30;99.90
22194;DHT22;11262;50.308;9.270;2022-10-29T07:50:31;14.30;99.90
22194;DHT22;11262;50.308;9.270;2022-10-29T07:53:00;14.40;99.90
22194;DHT22;11262;50.308;9.270;2022-10-29T07:55:27;14.40;99.90
22194;DHT22;11262;50.308;9.270;2022-10-29T07:58:00;14.40;99.90
22194;DHT22;11262;50.308;9.270;2022-10-29T08:00:34;14.40;99.90
22194;DHT22;11262;50.308;9.270;2022-10-29T08:03:00;14.40;99.90
22194;DHT22;11262;50.308;9.270;2022-10-29T08:05:28;14.40;99.90
22194;DHT22;11262;50.308;9.270;2022-10-29T08:07:54;14.40;99.90
22194;DHT22;11262;50.308;9.270;2022-10-29T08:10:21;14.40;99.90
22194;DHT22;11262;50.308;9.270;2022-10-29T08:12:51;14.40;99.90
22194;DHT22;11262;50.308;9.270;2022-10-29T08:15:17;14.50;99.90
22194;DHT22;11262;50.308;9.270;2022-10-29T08:17:43;14.50;99.90
22194;DHT22;11262;50.308;9.270;2022-10-29T08:20:09;14.60;99.90
22194;DHT22;11262;50.308;9.270;2022-10-29T08:22:35;14.60;99.90
22194;DHT22;11262;50.308;9.270;2022-10-29T08:25:01;14.70;99.90
22194;DHT22;11262;50.308;9.270;2022-10-29T08:27:26;14.70;99.90
22194;DHT22;11262;50.308;9.270;2022-10-29T08:29:52;14.80;99.90
22194;DHT22;11262;50.308;9.270;2022-10-29T08:32:17;14.80;99.90
22194;DHT22;11262;50.308;9.270;2022-10-29T08:34:43;14.90;99.90
22194;DHT22;11262;50.308;9.270;2022-10-29T08:37:09;15.00;99.90
22194;DHT22;11262;50.308;9.270;2022-10-29T08:39:34;15.00;99.90
22194;DHT22;11262;50.308;9.270;2022-10-29T08:47:15;15.10;99.90
22194;DHT22;11262;50.308;9.270;2022-10-29T08:52:30;15.30;99.90
22194;DHT22;11262;50.308;9.270;2022-10-29T08:55:50;15.40;99.90
22194;DHT22;11262;50.308;9.270;2022-10-29T09:00:41;15.40;99.90
22194;DHT22;11262;50.308;9.270;2022-10-29T09:03:11;15.50;99.90
22194;DHT22;11262;50.308;9.270;2022-10-29T09:10:54;15.70;99.90
22194;DHT22;11262;50.308;9.270;2022-10-29T09:19:23;15.70;99.90
22194;DHT22;11262;50.308;9.270;2022-10-29T09:28:23;15.90;99.90
22194;DHT22;11262;50.308;9.270;2022-10-29T09:31:16;15.90;99.90
22194;DHT22;11262;50.308;9.270;2022-10-29T09:33:49;16.00;99.90
22194;DHT22;11262;50.308;9.270;2022-10-29T09:36:20;16.00;99.90
22194;DHT22;11262;50.308;9.270;2022-10-29T09:38:58;16.10;99.90
22194;DHT22;11262;50.308;9.270;2022-10-29T09:41:31;16.10;99.90
22194;DHT22;11262;50.308;9.270;2022-10-29T09:44:13;16.10;99.90
22194;DHT22;11262;50.308;9.270;2022-10-29T09:54:26;16.30;99.90
22194;DHT22;11262;50.308;9.270;2022-10-29T09:56:53;16.40;99.90
22194;DHT22;11262;50.308;9.270;2022-10-29T09:59:39;16.40;99.90
22194;DHT22;11262;50.308;9.270;2022-10-29T10:02:36;16.50;99.90
22194;DHT22;11262;50.308;9.270;2022-10-29T10:05:25;16.60;99.90
22194;DHT22;11262;50.308;9.270;2022-10-29T10:08:11;16.60;99.90
22194;DHT22;11262;50.308;9.270;2022-10-29T10:13:27;16.70;99.90
22194;DHT22;11262;50.308;9.270;2022-10-29T10:15:55;16.80;99.90
22194;DHT22;11262;50.308;9.270;2022-10-29T10:18:27;16.90;99.90
22194;DHT22;11262;50.308;9.270;2022-10-29T10:21:14;17.10;99.90
22194;DHT22;11262;50.308;9.270;2022-10-29T10:23:52;17.40;99.90
22194;DHT22;11262;50.308;9.270;2022-10-29T10:26:38;17.60;99.90
22194;DHT22;11262;50.308;9.270;2022-10-29T10:31:44;17.70;99.90
22194;DHT22;11262;50.308;9.270;2022-10-29T10:34:16;17.70;99.90
22194;DHT22;11262;50.308;9.270;2022-10-29T10:36:45;17.70;99.90
22194;DHT22;11262;50.308;9.270;2022-10-29T10:39:31;17.70;99.90
22194;DHT22;11262;50.308;9.270;2022-10-29T10:42:05;17.70;99.90
22194;DHT22;11262;50.308;9.270;2022-10-29T10:44:31;17.70;99.90
22194;DHT22;11262;50.308;9.270;2022-10-29T10:47:04;17.80;99.90
22194;DHT22;11262;50.308;9.270;2022-10-29T10:49:35;17.90;99.90
22194;DHT22;11262;50.308;9.270;2022-10-29T10:52:04;18.10;99.90
22194;DHT22;11262;50.308;9.270;2022-10-29T10:54:40;18.10;99.90
22194;DHT22;11262;50.308;9.270;2022-10-29T11:02:36;18.40;99.90
22194;DHT22;11262;50.308;9.270;2022-10-29T11:05:17;18.50;99.90
22194;DHT22;11262;50.308;9.270;2022-10-29T11:10:45;19.10;99.90
22194;DHT22;11262;50.308;9.270;2022-10-29T11:13:19;19.40;99.90
22194;DHT22;11262;50.308;9.270;2022-10-29T11:18:22;19.80;99.90
22194;DHT22;11262;50.308;9.270;2022-10-29T11:21:03;20.10;99.90
22194;DHT22;11262;50.308;9.270;2022-10-29T11:23:47;20.20;99.90
22194;DHT22;11262;50.308;9.270;2022-10-29T11:26:18;20.50;99.90
22194;DHT22;11262;50.308;9.270;2022-10-29T11:31:57;20.60;99.90
22194;DHT22;11262;50.308;9.270;2022-10-29T11:37:22;20.60;99.90
22194;DHT22;11262;50.308;9.270;2022-10-29T11:39:56;20.70;99.90
22194;DHT22;11262;50.308;9.270;2022-10-29T11:42:22;21.00;99.90
22194;DHT22;11262;50.308;9.270;2022-10-29T11:44:49;21.20;99.90
22194;DHT22;11262;50.308;9.270;2022-10-29T11:50:28;21.50;99.90
22194;DHT22;11262;50.308;9.270;2022-10-29T11:55:55;20.90;99.90
22194;DHT22;11262;50.308;9.270;2022-10-29T11:58:33;20.80;99.90
22194;DHT22;11262;50.308;9.270;2022-10-29T12:01:39;20.70;99.90
22194;DHT22;11262;50.308;9.270;2022-10-29T12:04:36;20.50;99.90
22194;DHT22;11262;50.308;9.270;2022-10-29T12:07:32;20.30;99.90
22194;DHT22;11262;50.308;9.270;2022-10-29T12:18:50;20.00;99.90
22194;DHT22;11262;50.308;9.270;2022-10-29T12:21:31;20.00;99.90
22194;DHT22;11262;50.308;9.270;2022-10-29T12:30:06;20.30;99.90
22194;DHT22;11262;50.308;9.270;2022-10-29T12:40:45;20.70;99.90
22194;DHT22;11262;50.308;9.270;2022-10-29T12:43:27;20.70;99.90
22194;DHT22;11262;50.308;9.270;2022-10-29T12:46:28;20.70;99.90
22194;DHT22;11262;50.308;9.270;2022-10-29T12:49:56;20.70;99.90
22194;DHT22;11262;50.308;9.270;2022-10-29T12:51:50;20.70;99.90
22194;DHT22;11262;50.308;9.270;2022-10-29T12:54:35;20.80;99.90
22194;DHT22;11262;50.308;9.270;2022-10-29T12:57:29;20.90;99.90
22194;DHT22;11262;50.308;9.270;2022-10-29T12:59:55;21.00;99.90
22194;DHT22;11262;50.308;9.270;2022-10-29T13:15:31;20.40;99.90
22194;DHT22;11262;50.308;9.270;2022-10-29T13:18:15;20.30;99.90
22194;DHT22;11262;50.308;9.270;2022-10-29T13:20:47;20.20;99.90
22194;DHT22;11262;50.308;9.270;2022-10-29T13:30:44;19.90;99.90
22194;DHT22;11262;50.308;9.270;2022-10-29T13:44:00;19.70;99.90
22194;DHT22;11262;50.308;9.270;2022-10-29T13:46:49;19.70;99.90
22194;DHT22;11262;50.308;9.270;2022-10-29T13:49:24;19.70;99.90
22194;DHT22;11262;50.308;9.270;2022-10-29T13:52:02;19.70;99.90
22194;DHT22;11262;50.308;9.270;2022-10-29T14:00:00;19.90;99.90
22194;DHT22;11262;50.308;9.270;2022-10-29T14:05:18;19.90;99.90
22194;DHT22;11262;50.308;9.270;2022-10-29T14:08:00;19.80;99.90
22194;DHT22;11262;50.308;9.270;2022-10-29T14:21:04;19.80;99.90
22194;DHT22;11262;50.308;9.270;2022-10-29T14:23:31;19.80;99.90
22194;DHT22;11262;50.308;9.270;2022-10-29T14:26:01;19.80;99.90
22194;DHT22;11262;50.308;9.270;2022-10-29T14:28:32;19.70;99.90
22194;DHT22;11262;50.308;9.270;2022-10-29T14:31:14;19.70;99.90
22194;DHT22;11262;50.308;9.270;2022-10-29T14:33:41;19.70;99.90
22194;DHT22;11262;50.308;9.270;2022-10-29T14:38:51;19.60;99.90
22194;DHT22;11262;50.308;9.270;2022-10-29T14:41:18;19.60;99.90
22194;DHT22;11262;50.308;9.270;2022-10-29T14:43:59;19.60;99.90
22194;DHT22;11262;50.308;9.270;2022-10-29T14:46:28;19.60;99.90
22194;DHT22;11262;50.308;9.270;2022-10-29T14:49:04;19.50;99.90
22194;DHT22;11262;50.308;9.270;2022-10-29T14:52:07;19.50;99.90
22194;DHT22;11262;50.308;9.270;2022-10-29T14:54:40;19.50;99.90
22194;DHT22;11262;50.308;9.270;2022-10-29T14:57:15;19.40;99.90
22194;DHT22;11262;50.308;9.270;2022-10-29T15:00:02;19.40;99.90
22194;DHT22;11262;50.308;9.270;2022-10-29T15:02:38;19.30;99.90
22194;DHT22;11262;50.308;9.270;2022-10-29T15:05:30;19.20;99.90
22194;DHT22;11262;50.308;9.270;2022-10-29T15:08:22;19.20;99.90
22194;DHT22;11262;50.308;9.270;2022-10-29T15:10:55;19.20;99.90
22194;DHT22;11262;50.308;9.270;2022-10-29T15:18:24;19.20;99.90
22194;DHT22;11262;50.308;9.270;2022-10-29T15:20:52;19.10;99.90
22194;DHT22;11262;50.308;9.270;2022-10-29T15:23:26;19.10;99.90
22194;DHT22;11262;50.308;9.270;2022-10-29T15:26:15;19.00;99.90
22194;DHT22;11262;50.308;9.270;2022-10-29T15:28:52;18.90;99.90
22194;DHT22;11262;50.308;9.270;2022-10-29T15:33:52;18.80;99.90
22194;DHT22;11262;50.308;9.270;2022-10-29T15:36:19;18.80;99.90
22194;DHT22;11262;50.308;9.270;2022-10-29T15:46:45;18.50;99.90
22194;DHT22;11262;50.308;9.270;2022-10-29T15:49:15;18.40;99.90
22194;DHT22;11262;50.308;9.270;2022-10-29T15:51:41;18.40;99.90
22194;DHT22;11262;50.308;9.270;2022-10-29T15:54:09;18.30;99.90
22194;DHT22;11262;50.308;9.270;2022-10-29T15:56:38;18.30;99.90
22194;DHT22;11262;50.308;9.270;2022-10-29T15:59:05;18.20;99.90
22194;DHT22;11262;50.308;9.270;2022-10-29T16:01:31;18.20;99.90
22194;DHT22;11262;50.308;9.270;2022-10-29T16:03:56;18.10;99.90
22194;DHT22;11262;50.308;9.270;2022-10-29T16:06:22;18.10;99.90
22194;DHT22;11262;50.308;9.270;2022-10-29T16:08:53;18.00;99.90
22194;DHT22;11262;50.308;9.270;2022-10-29T16:11:21;17.80;99.90
22194;DHT22;11262;50.308;9.270;2022-10-29T16:13:48;17.80;99.90
22194;DHT22;11262;50.308;9.270;2022-10-29T16:16:16;17.80;99.90
22194;DHT22;11262;50.308;9.270;2022-10-29T16:18:43;17.70;99.90
22194;DHT22;11262;50.308;9.270;2022-10-29T16:21:12;17.70;99.90
22194;DHT22;11262;50.308;9.270;2022-10-29T16:23:39;17.60;99.90
22194;DHT22;11262;50.308;9.270;2022-10-29T16:26:05;17.60;99.90
22194;DHT22;11262;50.308;9.270;2022-10-29T16:28:30;17.60;99.90
22194;DHT22;11262;50.308;9.270;2022-10-29T16:30:58;17.50;99.90
22194;DHT22;11262;50.308;9.270;2022-10-29T16:33:25;17.50;99.90
22194;DHT22;11262;50.308;9.270;2022-10-29T16:35:50;17.40;99.90
22194;DHT22;11262;50.308;9.270;2022-10-29T16:38:16;17.40;99.90
22194;DHT22;11262;50.308;9.270;2022-10-29T16:40:43;17.40;99.90
22194;DHT22;11262;50.308;9.270;2022-10-29T16:43:09;17.30;99.90
22194;DHT22;11262;50.308;9.270;2022-10-29T16:45:35;17.30;99.90
22194;DHT22;11262;50.308;9.270;2022-10-29T16:48:00;17.30;99.90
22194;DHT22;11262;50.308;9.270;2022-10-29T16:50:28;17.20;99.90
22194;DHT22;11262;50.308;9.270;2022-10-29T16:52:58;17.20;99.90
22194;DHT22;11262;50.308;9.270;2022-10-29T16:55:25;17.20;99.90
22194;DHT22;11262;50.308;9.270;2022-10-29T16:57:50;17.10;99.90
22194;DHT22;11262;50.308;9.270;2022-10-29T17:00:16;17.10;99.90
22194;DHT22;11262;50.308;9.270;2022-10-29T17:02:42;17.10;99.90
22194;DHT22;11262;50.308;9.270;2022-10-29T17:05:10;17.00;99.90
22194;DHT22;11262;50.308;9.270;2022-10-29T17:07:36;17.00;99.90
22194;DHT22;11262;50.308;9.270;2022-10-29T17:10:03;17.00;99.90
22194;DHT22;11262;50.308;9.270;2022-10-29T17:12:29;16.90;99.90
22194;DHT22;11262;50.308;9.270;2022-10-29T17:14:54;16.90;99.90
22194;DHT22;11262;50.308;9.270;2022-10-29T17:17:20;16.90;99.90
22194;DHT22;11262;50.308;9.270;2022-10-29T17:19:45;16.80;99.90
22194;DHT22;11262;50.308;9.270;2022-10-29T17:22:11;16.80;99.90
22194;DHT22;11262;50.308;9.270;2022-10-29T17:24:43;16.80;99.90
22194;DHT22;11262;50.308;9.270;2022-10-29T17:27:10;16.70;99.90
22194;DHT22;11262;50.308;9.270;2022-10-29T17:29:36;16.70;99.90
22194;DHT22;11262;50.308;9.270;2022-10-29T17:32:04;16.70;99.90
22194;DHT22;11262;50.308;9.270;2022-10-29T17:34:30;16.70;99.90
22194;DHT22;11262;50.308;9.270;2022-10-29T17:36:55;16.60;99.90
22194;DHT22;11262;50.308;9.270;2022-10-29T17:39:21;16.60;99.90
22194;DHT22;11262;50.308;9.270;2022-10-29T17:41:47;16.50;99.90
22194;DHT22;11262;50.308;9.270;2022-10-29T17:44:13;16.50;99.90
22194;DHT22;11262;50.308;9.270;2022-10-29T17:46:39;16.50;99.90
22194;DHT22;11262;50.308;9.270;2022-10-29T17:49:04;16.40;99.90
22194;DHT22;11262;50.308;9.270;2022-10-29T17:51:30;16.40;99.90
22194;DHT22;11262;50.308;9.270;2022-10-29T17:53:56;16.40;99.90
22194;DHT22;11262;50.308;9.270;2022-10-29T17:56:21;16.30;99.90
22194;DHT22;11262;50.308;9.270;2022-10-29T17:58:47;16.30;99.90
22194;DHT22;11262;50.308;9.270;2022-10-29T18:01:13;16.30;99.90
22194;DHT22;11262;50.308;9.270;2022-10-29T18:03:40;16.20;99.90
22194;DHT22;11262;50.308;9.270;2022-10-29T18:06:08;16.20;99.90
22194;DHT22;11262;50.308;9.270;2022-10-29T18:08:38;16.20;99.90
22194;DHT22;11262;50.308;9.270;2022-10-29T18:11:16;16.20;99.90
22194;DHT22;11262;50.308;9.270;2022-10-29T18:13:43;16.10;99.90
22194;DHT22;11262;50.308;9.270;2022-10-29T18:16:14;16.10;99.90
22194;DHT22;11262;50.308;9.270;2022-10-29T18:18:40;16.10;99.90
22194;DHT22;11262;50.308;9.270;2022-10-29T18:21:08;16.00;99.90
22194;DHT22;11262;50.308;9.270;2022-10-29T18:23:34;16.00;99.90
22194;DHT22;11262;50.308;9.270;2022-10-29T18:26:18;16.00;99.90
22194;DHT22;11262;50.308;9.270;2022-10-29T18:28:44;15.90;99.90
22194;DHT22;11262;50.308;9.270;2022-10-29T18:31:09;15.90;99.90
22194;DHT22;11262;50.308;9.270;2022-10-29T18:33:35;15.80;99.90
22194;DHT22;11262;50.308;9.270;2022-10-29T18:36:01;15.80;99.90
22194;DHT22;11262;50.308;9.270;2022-10-29T18:38:27;15.80;99.90
22194;DHT22;11262;50.308;9.270;2022-10-29T18:40:54;15.80;99.90
22194;DHT22;11262;50.308;9.270;2022-10-29T18:43:20;15.70;99.90
22194;DHT22;11262;50.308;9.270;2022-10-29T18:46:03;15.70;99.90
22194;DHT22;11262;50.308;9.270;2022-10-29T18:48:29;15.60;99.90